Terminal Aerodrome Forecast
Issued by NWS Sterling, VA

Current Version | Previous Version | Graphics & Text | Print | Product List | Glossary On
Versions: 1 2 3 4 5 6 7 8 9 10 11 12 13 14 15 16 17 18 19 20 21 22 23 24 25 26 27 28 29 30
511
FTUS41 KLWX 030219 AAE
TAFIAD
TAF AMD
KIAD 030219Z 0302/0406 07007KT 3SM -SHRA OVC050
     FM031200 34006KT P6SM -SHRA OVC008
     FM031600 35005KT P6SM -SHRA OVC015
     FM031800 36004KT P6SM BKN015
     FM032000 01005KT P6SM BKN025
     FM040300 VRB03KT P6SM BKN015=

USA.gov is the U.S. government's official web portal to all federal, state and local government web resources and services.